Time;durP1;ratioP1;P1;durP2;ratioP2;P2;SDS_P1;SDS_P2;PMS_P1;PMS_P2;Temp;Humidity;BMP_temperature;BMP_pressure;BME280_temperature;BME280_humidity;BME280_pressure;Samples;Min_cycle;Max_cycle;Signal;HPM_P1;HPM_P2
2024/01/08 00:00:50;;;;;;;;;;;;;;;3.60;57.86;99737.56;5482150;32;34564;-73
2024/01/08 00:03:52;;;;;;;;;;;;;;;2.70;60.49;99741.91;5501559;32;34659;-66
2024/01/08 00:06:54;;;;;;;;;;;;;;;2.35;62.46;99747.69;5491533;32;34324;-74
2024/01/08 00:09:57;;;;;;;;;;;;;;;1.98;65.41;99760.34;5499268;32;34807;-66
2024/01/08 00:12:59;;;;;;;;;;;;;;;2.56;64.70;99754.25;5495358;32;35550;-72
2024/01/08 00:16:01;;;;;;;;;;;;;;;1.99;66.10;99768.09;5495476;32;34947;-73
2024/01/08 00:19:03;;;;;;;;;;;;;;;2.52;64.59;99758.66;5497176;32;35015;-66
2024/01/08 00:22:06;;;;;;;;;;;;;;;1.55;67.64;99774.72;5497472;32;35355;-65
2024/01/08 00:25:08;;;;;;;;;;;;;;;1.87;67.94;99771.72;5480868;32;34962;-74
2024/01/08 00:28:10;;;;;;;;;;;;;;;2.00;65.99;99780.19;5492649;32;34699;-66
2024/01/08 00:31:12;;;;;;;;;;;;;;;1.92;66.98;99779.41;5496601;32;34810;-66
2024/01/08 00:34:14;;;;;;;;;;;;;;;1.59;68.09;99783.31;5480905;32;34720;-74
2024/01/08 00:37:17;;;;;;;;;;;;;;;1.26;70.34;99785.41;5481097;32;35371;-67
2024/01/08 00:40:19;;;;;;;;;;;;;;;1.60;69.91;99792.78;5496441;32;34955;-72
2024/01/08 00:43:21;;;;;;;;;;;;;;;2.34;68.92;99790.91;5497953;32;34432;-72
2024/01/08 00:46:24;;;;;;;;;;;;;;;1.23;71.36;99805.31;5500409;32;35090;-66
2024/01/08 00:49:26;;;;;;;;;;;;;;;0.86;74.73;99807.38;5488942;32;34828;-68
2024/01/08 00:52:28;;;;;;;;;;;;;;;1.10;74.44;99809.75;5498320;32;34330;-74
2024/01/08 00:55:30;;;;;;;;;;;;;;;0.78;73.76;99805.72;5482565;32;34751;-67
2024/01/08 00:58:32;;;;;;;;;;;;;;;0.93;73.56;99814.22;5490125;32;35252;-66
2024/01/08 01:01:37;;;;;;;;;;;;;;;0.65;74.79;99808.44;5488647;32;37663;-72
2024/01/08 01:04:39;;;;;;;;;;;;;;;0.99;74.58;99820.19;5487251;32;35369;-73
2024/01/08 01:07:42;;;;;;;;;;;;;;;0.82;74.22;99810.00;5500861;32;34295;-72
2024/01/08 01:10:44;;;;;;;;;;;;;;;0.93;73.12;99822.84;5481567;32;35622;-65
2024/01/08 01:13:46;;;;;;;;;;;;;;;1.46;69.95;99825.75;5497076;32;35598;-66
2024/01/08 01:16:48;;;;;;;;;;;;;;;0.62;72.27;99830.00;5487502;32;34737;-66
2024/01/08 01:19:50;;;;;;;;;;;;;;;1.03;73.06;99828.78;5493175;32;35765;-67
2024/01/08 01:22:52;;;;;;;;;;;;;;;1.21;72.85;99830.34;5500045;32;35026;-67
2024/01/08 01:25:55;;;;;;;;;;;;;;;0.99;71.18;99825.37;5481366;32;34711;-73
2024/01/08 01:28:58;;;;;;;;;;;;;;;1.03;72.69;99829.66;5498230;32;35038;-71
2024/01/08 01:32:00;;;;;;;;;;;;;;;1.53;71.32;99835.19;5495310;32;34167;-65
2024/01/08 01:35:03;;;;;;;;;;;;;;;0.99;72.64;99833.13;5493422;32;36033;-73
2024/01/08 01:38:05;;;;;;;;;;;;;;;0.99;72.43;99832.28;5495711;32;35400;-65
2024/01/08 01:41:07;;;;;;;;;;;;;;;1.38;71.30;99833.63;5495701;32;35201;-66
2024/01/08 01:44:09;;;;;;;;;;;;;;;1.01;71.72;99833.13;5498092;32;34457;-71
2024/01/08 01:47:12;;;;;;;;;;;;;;;0.92;71.96;99834.06;5497743;32;35028;-67
2024/01/08 01:50:14;;;;;;;;;;;;;;;1.55;68.41;99829.12;5499300;32;35452;-67
2024/01/08 01:53:16;;;;;;;;;;;;;;;1.17;68.81;99831.25;5495715;32;34592;-71
2024/01/08 01:56:18;;;;;;;;;;;;;;;1.41;68.68;99822.34;5497070;32;34229;-65
2024/01/08 01:59:20;;;;;;;;;;;;;;;0.89;69.18;99831.50;5482579;32;34528;-66
2024/01/08 02:02:27;;;;;;;;;;;;;;;1.43;68.16;99834.44;5465731;32;34728;-66
2024/01/08 02:05:30;;;;;;;;;;;;;;;1.48;67.43;99827.47;5488086;32;34234;-66
2024/01/08 02:08:32;;;;;;;;;;;;;;;1.56;67.10;99835.16;5478961;32;35421;-72
2024/01/08 02:11:34;;;;;;;;;;;;;;;1.33;66.92;99825.91;5502055;32;34944;-66
2024/01/08 02:14:37;;;;;;;;;;;;;;;1.47;65.88;99840.41;5468461;32;35433;-66
2024/01/08 02:17:39;;;;;;;;;;;;;;;1.37;66.19;99828.47;5479243;32;33017;-74
2024/01/08 02:20:41;;;;;;;;;;;;;;;1.03;68.37;99850.38;5480092;32;34955;-72
2024/01/08 02:23:43;;;;;;;;;;;;;;;0.94;67.86;99842.66;5493269;32;34672;-65
2024/01/08 02:26:46;;;;;;;;;;;;;;;1.33;67.09;99843.16;5502529;32;34309;-73
2024/01/08 02:29:48;;;;;;;;;;;;;;;1.46;65.97;99849.06;5476963;32;34990;-72
2024/01/08 02:32:50;;;;;;;;;;;;;;;1.54;66.02;99847.25;5479167;32;35313;-65
2024/01/08 02:35:53;;;;;;;;;;;;;;;1.07;68.36;99849.44;5484442;32;34828;-67
2024/01/08 02:38:55;;;;;;;;;;;;;;;1.67;66.60;99850.56;5476174;32;35217;-72
2024/01/08 02:41:57;;;;;;;;;;;;;;;1.32;69.25;99850.06;5503118;32;34601;-65
2024/01/08 02:45:00;;;;;;;;;;;;;;;1.53;67.73;99861.94;5492865;32;34224;-71
2024/01/08 02:48:02;;;;;;;;;;;;;;;1.52;66.86;99862.81;5475966;32;35333;-65
2024/01/08 02:51:05;;;;;;;;;;;;;;;1.56;67.72;99867.09;5478943;32;34801;-72
2024/01/08 02:54:07;;;;;;;;;;;;;;;1.08;67.95;99876.19;5493792;32;34815;-72
2024/01/08 02:57:09;;;;;;;;;;;;;;;1.49;66.88;99870.63;5481114;32;34907;-72
2024/01/08 03:00:12;;;;;;;;;;;;;;;1.58;66.78;99874.84;5495197;32;34991;-72
2024/01/08 03:03:14;;;;;;;;;;;;;;;0.77;68.74;99876.47;5497902;32;34332;-73
2024/01/08 03:06:16;;;;;;;;;;;;;;;0.60;69.75;99873.13;5482282;32;34458;-66
2024/01/08 03:09:18;;;;;;;;;;;;;;;0.40;70.83;99878.44;5495185;32;34200;-73
2024/01/08 03:12:20;;;;;;;;;;;;;;;0.48;70.54;99880.97;5476530;32;34751;-72
2024/01/08 03:15:25;;;;;;;;;;;;;;;1.44;68.63;99887.09;5482891;32;34773;-72
2024/01/08 03:18:27;;;;;;;;;;;;;;;1.55;67.11;99882.66;5474877;32;34630;-72
2024/01/08 03:21:30;;;;;;;;;;;;;;;1.53;67.17;99887.84;5499139;32;34890;-74
2024/01/08 03:24:33;;;;;;;;;;;;;;;1.17;67.08;99893.38;5495276;32;33981;-72
2024/01/08 03:27:35;;;;;;;;;;;;;;;0.91;67.87;99899.63;5489368;32;34854;-72
2024/01/08 03:30:37;;;;;;;;;;;;;;;1.41;66.37;99900.91;5456390;32;34786;-67
2024/01/08 03:33:39;;;;;;;;;;;;;;;1.45;66.16;99905.19;5480655;32;35274;-73
2024/01/08 03:36:45;;;;;;;;;;;;;;;1.76;65.21;99900.56;5477854;32;34678;-71
2024/01/08 03:39:48;;;;;;;;;;;;;;;1.63;66.49;99904.16;5491594;32;34925;-66
2024/01/08 03:42:51;;;;;;;;;;;;;;;2.09;64.04;99901.87;5486891;32;34505;-65
2024/01/08 03:45:53;;;;;;;;;;;;;;;1.10;66.85;99915.88;5498349;32;34739;-72
2024/01/08 03:48:55;;;;;;;;;;;;;;;1.20;67.07;99922.69;5463659;32;34290;-65
2024/01/08 03:51:57;;;;;;;;;;;;;;;1.27;66.14;99920.88;5497022;32;35012;-72
2024/01/08 03:55:00;;;;;;;;;;;;;;;0.99;67.28;99933.22;5488215;32;34227;-66
2024/01/08 03:58:02;;;;;;;;;;;;;;;1.28;65.98;99932.97;5492964;32;34418;-71
2024/01/08 04:01:04;;;;;;;;;;;;;;;0.89;66.43;99936.72;5489053;32;35340;-72
2024/01/08 04:04:06;;;;;;;;;;;;;;;1.22;66.33;99939.03;5482252;31;35369;-66
2024/01/08 04:07:09;;;;;;;;;;;;;;;1.18;66.25;99936.50;5496310;32;34434;-66
2024/01/08 04:10:11;;;;;;;;;;;;;;;1.58;64.36;99937.88;5496551;32;34171;-67
2024/01/08 04:13:14;;;;;;;;;;;;;;;1.26;65.77;99945.94;5496468;32;34750;-74
2024/01/08 04:16:16;;;;;;;;;;;;;;;1.46;64.32;99950.06;5491369;32;35100;-66
2024/01/08 04:19:18;;;;;;;;;;;;;;;1.25;65.19;99945.94;5491684;32;35163;-65
2024/01/08 04:22:20;;;;;;;;;;;;;;;1.38;64.87;99947.56;5502299;32;35394;-65
2024/01/08 04:25:22;;;;;;;;;;;;;;;2.12;61.13;99945.91;5481883;32;34865;-73
2024/01/08 04:28:25;;;;;;;;;;;;;;;1.51;64.39;99958.66;5495743;32;34494;-65
2024/01/08 04:31:28;;;;;;;;;;;;;;;1.93;63.83;99961.69;5487160;32;35416;-67
2024/01/08 04:34:30;;;;;;;;;;;;;;;1.80;63.16;99961.84;5495492;32;34306;-67
2024/01/08 04:37:33;;;;;;;;;;;;;;;1.57;65.07;99972.41;5477076;32;34788;-64
2024/01/08 04:40:35;;;;;;;;;;;;;;;0.96;65.54;99970.31;5496505;32;34282;-65
2024/01/08 04:43:38;;;;;;;;;;;;;;;0.94;66.17;99973.78;5487978;32;34755;-66
2024/01/08 04:46:44;;;;;;;;;;;;;;;1.99;63.04;99979.75;5476955;32;34741;-72
2024/01/08 04:49:46;;;;;;;;;;;;;;;1.16;64.24;99977.94;5484456;32;34739;-65
2024/01/08 04:52:48;;;;;;;;;;;;;;;1.66;63.54;99992.19;5478053;32;34588;-73
2024/01/08 04:55:50;;;;;;;;;;;;;;;1.50;63.75;99988.88;5485149;32;34416;-73
2024/01/08 04:58:52;;;;;;;;;;;;;;;1.23;65.18;99991.72;5492909;32;34337;-72
2024/01/08 05:01:55;;;;;;;;;;;;;;;1.53;62.83;99996.62;5481190;32;34932;-72
2024/01/08 05:04:57;;;;;;;;;;;;;;;2.09;62.42;100000.41;5498156;32;35047;-67
2024/01/08 05:08:00;;;;;;;;;;;;;;;1.86;63.04;100003.22;5491374;32;34580;-73
2024/01/08 05:11:02;;;;;;;;;;;;;;;1.76;63.31;100013.69;5485396;32;34187;-71
2024/01/08 05:14:04;;;;;;;;;;;;;;;0.95;65.54;100014.31;5492862;32;35424;-67
2024/01/08 05:17:06;;;;;;;;;;;;;;;1.51;64.07;100015.66;5494377;32;35398;-66
2024/01/08 05:20:10;;;;;;;;;;;;;;;1.50;62.97;100024.28;5498586;32;34459;-65
2024/01/08 05:23:12;;;;;;;;;;;;;;;2.35;60.94;100025.19;5494480;32;35606;-73
2024/01/08 05:26:14;;;;;;;;;;;;;;;2.13;60.74;100028.03;5484315;32;34829;-73
2024/01/08 05:29:16;;;;;;;;;;;;;;;2.05;61.51;100037.59;5478513;32;34337;-72
2024/01/08 05:32:19;;;;;;;;;;;;;;;1.48;62.38;100046.72;5479152;32;33767;-73
2024/01/08 05:35:21;;;;;;;;;;;;;;;1.54;62.02;100044.94;5479296;32;34940;-66
2024/01/08 05:38:24;;;;;;;;;;;;;;;1.46;63.37;100051.94;5489722;32;35349;-75
2024/01/08 05:41:27;;;;;;;;;;;;;;;1.33;62.69;100048.56;5480135;32;34137;-66
2024/01/08 05:44:29;;;;;;;;;;;;;;;0.97;63.72;100060.03;5495591;32;34867;-67
2024/01/08 05:47:31;;;;;;;;;;;;;;;1.23;63.37;100064.19;5495926;32;35447;-75
2024/01/08 05:50:34;;;;;;;;;;;;;;;1.41;63.21;100060.59;5498715;32;35525;-72
2024/01/08 05:53:36;;;;;;;;;;;;;;;0.88;64.40;100067.81;5495235;32;35814;-65
2024/01/08 05:56:38;;;;;;;;;;;;;;;0.76;65.00;100084.25;5477811;32;35171;-71
2024/01/08 05:59:41;;;;;;;;;;;;;;;1.35;63.18;100084.81;5485059;32;34393;-72
2024/01/08 06:02:43;;;;;;;;;;;;;;;0.79;64.92;100086.84;5493205;32;35020;-71
2024/01/08 06:05:45;;;;;;;;;;;;;;;0.87;63.86;100084.22;5496651;32;35427;-73
2024/01/08 06:08:48;;;;;;;;;;;;;;;1.07;63.64;100092.75;5496481;32;34376;-65
2024/01/08 06:11:51;;;;;;;;;;;;;;;1.51;62.49;100086.44;5491112;32;35286;-66
2024/01/08 06:14:55;;;;;;;;;;;;;;;2.00;61.28;100092.97;5496095;32;35753;-71
2024/01/08 06:17:57;;;;;;;;;;;;;;;1.16;63.01;100099.62;5492849;32;34335;-74
2024/01/08 06:20:59;;;;;;;;;;;;;;;1.61;62.05;100103.66;5497228;32;35016;-67
2024/01/08 06:24:01;;;;;;;;;;;;;;;1.32;62.87;100109.00;5480745;32;35013;-73
2024/01/08 06:27:03;;;;;;;;;;;;;;;0.76;63.09;100112.72;5481629;32;35151;-73
2024/01/08 06:30:05;;;;;;;;;;;;;;;1.14;62.02;100116.00;5481597;32;34930;-73
2024/01/08 06:33:07;;;;;;;;;;;;;;;0.72;63.85;100113.59;5485621;32;36074;-72
2024/01/08 06:36:10;;;;;;;;;;;;;;;1.50;62.00;100122.72;5495307;32;34762;-74
2024/01/08 06:39:12;;;;;;;;;;;;;;;1.53;61.26;100120.94;5486475;32;34123;-66
2024/01/08 06:42:14;;;;;;;;;;;;;;;0.84;61.56;100138.56;5467726;32;34256;-74
2024/01/08 06:45:16;;;;;;;;;;;;;;;0.58;63.71;100146.41;5495807;32;34871;-74
2024/01/08 06:48:21;;;;;;;;;;;;;;;0.79;62.25;100142.91;5473274;32;35762;-70
2024/01/08 06:51:24;;;;;;;;;;;;;;;1.48;61.39;100148.63;5492704;32;34285;-79
2024/01/08 06:54:26;;;;;;;;;;;;;;;1.60;61.35;100153.72;5468975;32;34977;-72
2024/01/08 06:57:28;;;;;;;;;;;;;;;2.29;58.90;100157.50;5460175;32;34256;-66
2024/01/08 07:00:30;;;;;;;;;;;;;;;1.99;58.86;100162.06;5478800;32;34173;-74
2024/01/08 07:03:35;;;;;;;;;;;;;;;1.28;58.70;100168.56;5466845;32;34187;-69
2024/01/08 07:06:37;;;;;;;;;;;;;;;1.48;60.14;100166.75;5463284;32;35594;-69
2024/01/08 07:09:39;;;;;;;;;;;;;;;1.93;58.27;100174.22;5484461;32;35321;-76
2024/01/08 07:12:43;;;;;;;;;;;;;;;1.75;58.52;100175.22;5488038;32;32418;-70
2024/01/08 07:15:47;;;;;;;;;;;;;;;1.70;58.77;100185.63;5462977;32;34279;-69
2024/01/08 07:18:49;;;;;;;;;;;;;;;1.65;58.58;100189.94;5470520;31;34359;-75
2024/01/08 07:21:51;;;;;;;;;;;;;;;1.08;61.28;100189.37;5483915;32;34899;-68
2024/01/08 07:24:53;;;;;;;;;;;;;;;1.64;59.93;100196.00;5485062;32;34511;-77
2024/01/08 07:27:55;;;;;;;;;;;;;;;2.44;56.98;100194.53;5487148;32;34218;-71
2024/01/08 07:30:56;;;;;;;;;;;;;;;1.89;58.49;100209.69;5486180;32;34137;-76
2024/01/08 07:34:00;;;;;;;;;;;;;;;1.63;59.22;100209.84;5488860;32;35367;-69
2024/01/08 07:37:05;;;;;;;;;;;;;;;0.95;60.13;100213.56;5488066;32;34178;-70
2024/01/08 07:40:07;;;;;;;;;;;;;;;2.16;58.09;100217.25;5477386;32;35147;-70
2024/01/08 07:43:12;;;;;;;;;;;;;;;1.55;57.94;100221.97;5487505;32;34703;-71
2024/01/08 07:46:14;;;;;;;;;;;;;;;1.42;57.94;100228.94;5492155;32;34282;-71
2024/01/08 07:49:16;;;;;;;;;;;;;;;2.00;57.61;100231.22;5484640;32;34787;-71
2024/01/08 07:52:18;;;;;;;;;;;;;;;1.36;58.94;100236.75;5491571;32;34322;-66
2024/01/08 07:55:23;;;;;;;;;;;;;;;1.37;58.83;100254.00;5493684;32;34918;-69
2024/01/08 07:58:26;;;;;;;;;;;;;;;2.35;56.89;100241.31;5490494;32;34383;-67
2024/01/08 08:01:40;;;;;;;;;;;;;;;2.43;56.32;100249.88;5493632;32;35009;-73
2024/01/08 08:04:42;;;;;;;;;;;;;;;1.97;56.83;100262.31;5488910;32;35451;-71
2024/01/08 08:07:46;;;;;;;;;;;;;;;1.15;58.08;100266.12;5490205;32;36270;-72
2024/01/08 08:10:50;;;;;;;;;;;;;;;1.22;59.24;100272.16;5493852;32;34195;-68
2024/01/08 08:13:52;;;;;;;;;;;;;;;1.77;57.42;100282.31;5484402;32;34215;-81
2024/01/08 08:16:54;;;;;;;;;;;;;;;1.56;57.38;100278.94;5488618;32;34208;-75
2024/01/08 08:19:56;;;;;;;;;;;;;;;1.87;56.46;100284.00;5493968;32;34268;-70
2024/01/08 08:22:59;;;;;;;;;;;;;;;1.95;56.63;100286.53;5480178;32;34410;-73
2024/01/08 08:26:02;;;;;;;;;;;;;;;1.44;57.26;100298.84;5465323;32;34474;-74
2024/01/08 08:29:04;;;;;;;;;;;;;;;2.39;55.74;100288.84;5474894;31;34216;-73
2024/01/08 08:32:07;;;;;;;;;;;;;;;2.17;56.54;100298.50;5476067;32;36508;-72
2024/01/08 08:35:09;;;;;;;;;;;;;;;2.05;56.44;100306.34;5487971;32;33250;-68
2024/01/08 08:38:12;;;;;;;;;;;;;;;2.13;55.99;100312.38;5493113;32;34042;-74
2024/01/08 08:41:14;;;;;;;;;;;;;;;2.62;54.89;100310.28;5492306;32;33255;-71
2024/01/08 08:44:17;;;;;;;;;;;;;;;2.32;54.93;100305.31;5489646;32;35206;-78
2024/01/08 08:47:21;;;;;;;;;;;;;;;2.35;54.86;100311.34;5493334;32;35147;-76
2024/01/08 08:50:23;;;;;;;;;;;;;;;2.28;55.37;100309.66;5496659;32;35512;-70
2024/01/08 08:53:29;;;;;;;;;;;;;;;2.46;54.38;100310.41;5492121;32;34266;-71
2024/01/08 08:56:34;;;;;;;;;;;;;;;2.19;55.21;100314.94;5479350;32;35841;-70
2024/01/08 08:59:37;;;;;;;;;;;;;;;2.64;54.22;100312.84;5473675;32;35796;-66
2024/01/08 09:02:39;;;;;;;;;;;;;;;2.89;54.64;100321.28;5480535;32;34208;-65
2024/01/08 09:05:41;;;;;;;;;;;;;;;2.55;54.48;100329.34;5491842;32;34188;-69
2024/01/08 09:08:48;;;;;;;;;;;;;;;2.98;53.57;100318.63;5489231;31;35307;-68
2024/01/08 09:11:50;;;;;;;;;;;;;;;3.45;51.97;100317.28;5468084;32;35149;-71
2024/01/08 09:14:52;;;;;;;;;;;;;;;2.56;53.62;100328.47;5477386;32;34773;-71
2024/01/08 09:17:54;;;;;;;;;;;;;;;1.97;56.15;100340.09;5470829;32;34216;-70
2024/01/08 09:20:56;;;;;;;;;;;;;;;2.34;54.88;100332.97;5493314;32;34198;-69
2024/01/08 09:23:58;;;;;;;;;;;;;;;2.77;54.44;100329.19;5484888;31;34719;-67
2024/01/08 09:27:01;;;;;;;;;;;;;;;2.38;54.83;100349.34;5488369;32;33780;-69
2024/01/08 09:30:04;;;;;;;;;;;;;;;1.80;56.81;100342.78;5473808;32;34165;-75
2024/01/08 09:33:06;;;;;;;;;;;;;;;2.56;56.94;100338.84;5460050;32;36621;-67
2024/01/08 09:36:09;;;;;;;;;;;;;;;3.02;53.13;100341.06;5491730;32;34088;-70
2024/01/08 09:39:11;;;;;;;;;;;;;;;2.44;55.39;100346.72;5481808;32;34826;-72
2024/01/08 09:42:13;;;;;;;;;;;;;;;2.51;54.82;100338.03;5476685;32;34296;-79
2024/01/08 09:45:15;;;;;;;;;;;;;;;3.01;53.98;100336.75;5477029;32;33166;-75
2024/01/08 09:48:17;;;;;;;;;;;;;;;2.32;55.97;100336.44;5471412;32;35204;-67
2024/01/08 09:51:22;;;;;;;;;;;;;;;2.99;53.78;100330.72;5481266;32;34208;-74
2024/01/08 09:54:24;;;;;;;;;;;;;;;2.75;52.95;100334.38;5473261;32;34564;-82
2024/01/08 09:57:26;;;;;;;;;;;;;;;2.26;55.02;100333.91;5494476;32;32941;-81
2024/01/08 10:00:28;;;;;;;;;;;;;;;2.49;54.61;100332.00;5488898;32;33971;-81
2024/01/08 10:03:35;;;;;;;;;;;;;;;2.78;54.23;100333.53;5486737;31;34321;-67
2024/01/08 10:06:40;;;;;;;;;;;;;;;2.33;55.23;100338.16;5491863;32;34348;-71
2024/01/08 10:09:42;;;;;;;;;;;;;;;2.77;54.47;100329.19;5486680;31;34360;-70
2024/01/08 10:12:47;;;;;;;;;;;;;;;3.33;52.77;100333.00;5489281;32;33003;-67
2024/01/08 10:15:52;;;;;;;;;;;;;;;2.96;52.93;100336.81;5474838;32;36382;-66
2024/01/08 10:18:54;;;;;;;;;;;;;;;2.31;55.05;100334.72;5445669;32;961947;-70
2024/01/08 10:22:12;;;;;;;;;;;;;;;2.58;54.57;100336.28;5475960;32;34354;-72
2024/01/08 10:25:23;;;;;;;;;;;;;;;3.09;53.80;100332.37;5489007;32;35271;-69
2024/01/08 10:28:25;;;;;;;;;;;;;;;3.18;53.50;100331.41;5487718;32;33414;-73
2024/01/08 10:31:27;;;;;;;;;;;;;;;2.66;54.19;100340.53;5489904;32;35872;-73
2024/01/08 10:34:30;;;;;;;;;;;;;;;2.39;55.06;100333.81;5490481;32;35949;-69
2024/01/08 10:37:35;;;;;;;;;;;;;;;3.18;53.20;100332.28;5475813;32;35928;-74
2024/01/08 10:40:37;;;;;;;;;;;;;;;3.21;52.78;100328.78;5471919;32;35741;-75
2024/01/08 10:43:41;;;;;;;;;;;;;;;2.85;52.89;100333.44;5479747;32;34240;-78
2024/01/08 10:46:53;;;;;;;;;;;;;;;3.25;52.36;100333.06;5469731;32;34314;-73
2024/01/08 10:49:56;;;;;;;;;;;;;;;4.01;51.19;100327.00;5468060;32;35143;-76
2024/01/08 10:52:58;;;;;;;;;;;;;;;3.38;50.83;100337.28;5473645;32;34147;-72
2024/01/08 10:56:01;;;;;;;;;;;;;;;2.83;52.67;100334.31;5464208;32;34110;-70
2024/01/08 10:59:04;;;;;;;;;;;;;;;3.41;52.30;100336.38;5469463;32;35410;-75
2024/01/08 11:02:07;;;;;;;;;;;;;;;4.71;49.16;100326.84;5474056;32;34433;-70
2024/01/08 11:05:10;;;;;;;;;;;;;;;3.42;51.69;100343.31;5465453;32;32980;-75
2024/01/08 11:08:12;;;;;;;;;;;;;;;3.43;51.53;100337.22;5474264;32;35740;-70
2024/01/08 11:11:15;;;;;;;;;;;;;;;3.28;52.80;100348.63;5488441;32;34425;-69
2024/01/08 11:14:17;;;;;;;;;;;;;;;3.98;49.92;100336.56;5468930;32;33459;-74
2024/01/08 11:17:19;;;;;;;;;;;;;;;3.73;50.09;100347.25;5492922;32;34395;-79
2024/01/08 11:20:34;;;;;;;;;;;;;;;5.06;47.45;100342.72;5491376;31;34072;-76
2024/01/08 11:23:40;;;;;;;;;;;;;;;4.94;48.06;100336.88;5489797;32;34170;-72
2024/01/08 11:26:48;;;;;;;;;;;;;;;5.61;44.75;100346.94;5476943;32;35063;-69
2024/01/08 11:30:01;;;;;;;;;;;;;;;4.50;46.83;100336.69;5475442;32;35184;-69
2024/01/08 11:33:26;;;;;;;;;;;;;;;4.82;46.98;100343.13;5494747;32;35422;-73
2024/01/08 11:36:40;;;;;;;;;;;;;;;5.21;46.23;100346.81;5491222;32;34840;-76
2024/01/08 11:39:45;;;;;;;;;;;;;;;5.28;47.23;100348.44;5494359;32;32558;-79
2024/01/08 11:42:47;;;;;;;;;;;;;;;5.64;46.07;100340.78;5480097;32;35812;-79
2024/01/08 11:45:49;;;;;;;;;;;;;;;4.60;47.53;100346.09;5491322;32;34123;-74
2024/01/08 11:48:54;;;;;;;;;;;;;;;5.27;46.58;100346.69;5492934;31;34124;-74
2024/01/08 11:52:01;;;;;;;;;;;;;;;5.28;46.19;100350.16;5478030;32;33793;-71
2024/01/08 11:55:05;;;;;;;;;;;;;;;5.18;46.18;100369.47;5496204;32;35808;-72
2024/01/08 11:58:07;;;;;;;;;;;;;;;5.06;47.39;100360.09;5478822;32;34749;-73
2024/01/08 12:01:14;;;;;;;;;;;;;;;4.37;48.84;100365.50;5466671;32;34222;-69
2024/01/08 12:04:16;;;;;;;;;;;;;;;3.88;50.05;100363.56;5495278;32;34023;-74
2024/01/08 12:07:18;;;;;;;;;;;;;;;4.23;48.57;100363.09;5492017;32;34513;-80
2024/01/08 12:10:21;;;;;;;;;;;;;;;3.98;49.32;100367.75;5503983;32;37921;-78
2024/01/08 12:13:24;;;;;;;;;;;;;;;4.20;49.75;100376.16;5479987;32;35216;-75
2024/01/08 12:16:27;;;;;;;;;;;;;;;4.32;49.54;100382.06;5479207;32;34129;-88
2024/01/08 12:19:40;;;;;;;;;;;;;;;4.54;48.30;100380.00;5494352;32;34842;-76
2024/01/08 12:22:42;;;;;;;;;;;;;;;4.16;49.63;100377.09;5473408;32;34954;-72
2024/01/08 12:25:50;;;;;;;;;;;;;;;4.29;48.90;100378.63;5497789;31;35386;-73
2024/01/08 12:28:54;;;;;;;;;;;;;;;3.15;51.29;100386.84;5494859;32;35856;-67
2024/01/08 12:31:57;;;;;;;;;;;;;;;4.00;49.14;100385.09;5490717;32;33413;-71
2024/01/08 12:35:03;;;;;;;;;;;;;;;4.30;49.38;100382.94;5465020;32;33282;-87
2024/01/08 12:38:07;;;;;;;;;;;;;;;4.88;47.79;100384.69;5488580;32;34846;-78
2024/01/08 12:41:09;;;;;;;;;;;;;;;6.18;45.45;100377.09;5496006;32;34117;-70
2024/01/08 12:44:12;;;;;;;;;;;;;;;7.72;42.49;100372.47;5494560;32;33960;-75
2024/01/08 12:47:14;;;;;;;;;;;;;;;7.68;41.51;100376.09;5483035;32;34252;-73
2024/01/08 12:50:16;;;;;;;;;;;;;;;7.56;41.23;100375.53;5479961;32;35651;-75
2024/01/08 12:53:18;;;;;;;;;;;;;;;7.57;42.15;100368.53;5492306;32;35490;-74
2024/01/08 12:56:20;;;;;;;;;;;;;;;8.66;39.53;100369.72;5497982;32;35310;-67
2024/01/08 12:59:26;;;;;;;;;;;;;;;8.02;39.21;100382.09;5488984;32;34166;-71
2024/01/08 13:02:31;;;;;;;;;;;;;;;8.53;38.91;100380.63;5482425;32;34894;-71
2024/01/08 13:05:34;;;;;;;;;;;;;;;11.21;34.27;100370.03;5477806;32;34203;-73
2024/01/08 13:08:37;;;;;;;;;;;;;;;7.16;40.75;100396.63;5493846;32;33750;-91
2024/01/08 13:11:39;;;;;;;;;;;;;;;7.05;41.42;100404.72;5466537;32;34148;-76
2024/01/08 13:14:42;;;;;;;;;;;;;;;6.81;41.99;100402.69;5480274;32;34397;-69
2024/01/08 13:17:44;;;;;;;;;;;;;;;5.74;43.87;100411.91;5496893;32;34625;-81
2024/01/08 13:20:49;;;;;;;;;;;;;;;5.26;45.91;100407.53;5490186;32;35330;-69
2024/01/08 13:23:51;;;;;;;;;;;;;;;4.99;46.93;100415.78;5464464;32;35600;-74
2024/01/08 13:26:53;;;;;;;;;;;;;;;4.75;47.68;100417.88;5491437;32;34628;-72
2024/01/08 13:29:56;;;;;;;;;;;;;;;5.19;46.68;100424.16;5480880;32;35852;-72
2024/01/08 13:32:58;;;;;;;;;;;;;;;3.97;48.51;100424.13;5489601;32;37363;-71
2024/01/08 13:36:02;;;;;;;;;;;;;;;4.40;48.49;100433.16;5493432;32;34025;-77
2024/01/08 13:39:04;;;;;;;;;;;;;;;4.13;49.21;100430.03;5499885;32;35304;-74
2024/01/08 13:42:07;;;;;;;;;;;;;;;3.85;49.97;100433.78;5490119;32;34317;-84
2024/01/08 13:45:09;;;;;;;;;;;;;;;3.99;49.69;100440.59;5493361;32;34440;-71
2024/01/08 13:48:11;;;;;;;;;;;;;;;3.93;50.17;100443.25;5489892;32;34359;-70
2024/01/08 13:51:14;;;;;;;;;;;;;;;3.74;50.11;100453.00;5492096;32;34426;-71
2024/01/08 13:54:17;;;;;;;;;;;;;;;4.12;50.11;100441.28;5470464;32;33257;-75
2024/01/08 13:57:19;;;;;;;;;;;;;;;4.29;49.34;100449.75;5465522;32;35763;-77
2024/01/08 14:00:21;;;;;;;;;;;;;;;4.02;50.52;100455.28;5488330;32;35055;-71
2024/01/08 14:03:26;;;;;;;;;;;;;;;4.16;50.08;100455.13;5490454;32;35430;-79
2024/01/08 14:06:28;;;;;;;;;;;;;;;5.86;47.14;100456.88;5464597;32;35727;-71
2024/01/08 14:09:30;;;;;;;;;;;;;;;4.70;48.12;100465.69;5460305;32;34055;-67
2024/01/08 14:12:32;;;;;;;;;;;;;;;5.91;46.23;100473.31;5492029;32;34115;-83
2024/01/08 14:15:34;;;;;;;;;;;;;;;4.78;48.48;100476.88;5495555;31;34969;-74
2024/01/08 14:18:36;;;;;;;;;;;;;;;5.59;47.25;100489.50;5490997;32;34270;-83
2024/01/08 14:21:38;;;;;;;;;;;;;;;4.38;49.02;100490.44;5490872;32;35205;-74
2024/01/08 14:24:40;;;;;;;;;;;;;;;4.45;49.85;100494.69;5493133;32;36717;-67
2024/01/08 14:27:42;;;;;;;;;;;;;;;4.19;49.97;100508.00;5495904;32;34752;-74
2024/01/08 14:30:45;;;;;;;;;;;;;;;4.57;49.53;100504.03;5477597;32;35500;-75
2024/01/08 14:33:47;;;;;;;;;;;;;;;4.80;48.39;100508.97;5486917;32;35439;-73
2024/01/08 14:36:49;;;;;;;;;;;;;;;5.18;47.53;100508.41;5477934;32;35647;-77
2024/01/08 14:39:51;;;;;;;;;;;;;;;4.93;47.40;100515.72;5481386;32;34448;-72
2024/01/08 14:42:54;;;;;;;;;;;;;;;4.20;46.44;100519.25;5489513;32;34814;-67
2024/01/08 14:45:59;;;;;;;;;;;;;;;4.58;44.03;100521.41;5491454;32;36415;-72
2024/01/08 14:49:01;;;;;;;;;;;;;;;4.13;45.00;100523.66;5490154;32;34195;-77
2024/01/08 14:52:05;;;;;;;;;;;;;;;4.03;44.65;100522.88;5475177;32;33631;-80
2024/01/08 14:55:07;;;;;;;;;;;;;;;4.14;45.24;100538.37;5494392;32;36130;-73
2024/01/08 14:58:12;;;;;;;;;;;;;;;3.73;45.72;100541.38;5496395;32;35851;-75
2024/01/08 15:01:16;;;;;;;;;;;;;;;3.80;46.89;100549.13;5474043;31;35565;-69
2024/01/08 15:04:18;;;;;;;;;;;;;;;3.98;48.68;100552.41;5500971;31;35546;-70
2024/01/08 15:07:20;;;;;;;;;;;;;;;3.06;51.91;100563.50;5489441;31;34215;-77
2024/01/08 15:10:25;;;;;;;;;;;;;;;3.48;51.87;100566.72;5495462;32;34324;-85
2024/01/08 15:13:28;;;;;;;;;;;;;;;3.65;51.31;100574.38;5463636;32;36321;-78
2024/01/08 15:16:30;;;;;;;;;;;;;;;3.53;51.81;100572.72;5489127;32;33174;-67
2024/01/08 15:19:32;;;;;;;;;;;;;;;4.16;50.15;100582.59;5491923;32;34409;-79
2024/01/08 15:22:35;;;;;;;;;;;;;;;2.88;53.44;100597.34;5462604;32;34505;-75
2024/01/08 15:25:36;;;;;;;;;;;;;;;3.52;51.95;100586.59;5491614;32;34420;-70
2024/01/08 15:28:46;;;;;;;;;;;;;;;2.94;52.60;100610.31;5491483;32;35537;-77
2024/01/08 15:31:51;;;;;;;;;;;;;;;2.92;53.39;100612.06;5495882;32;35087;-71
2024/01/08 15:34:56;;;;;;;;;;;;;;;3.55;52.04;100614.31;5490032;32;34552;-81
2024/01/08 15:37:59;;;;;;;;;;;;;;;3.46;51.83;100618.69;5488335;32;34589;-71
2024/01/08 15:41:04;;;;;;;;;;;;;;;2.99;52.65;100619.81;5478237;32;34301;-75
2024/01/08 15:44:12;;;;;;;;;;;;;;;2.95;53.27;100625.88;5492210;31;36787;-73
2024/01/08 15:47:20;;;;;;;;;;;;;;;3.49;52.16;100623.87;5479827;32;34257;-70
2024/01/08 15:50:22;;;;;;;;;;;;;;;3.86;50.80;100630.53;5457034;32;34404;-70
2024/01/08 15:53:32;;;;;;;;;;;;;;;3.80;51.19;100637.53;5470192;32;33892;-73
2024/01/08 15:56:43;;;;;;;;;;;;;;;4.24;49.89;100643.22;5493316;32;35830;-78